Three Notch, Alabama
Current Conditions -  °F | °C
As of 10:58 AM on Tuesday 27 Jan 2015 (Local Time) from KEUF Reporting Station
Clear Clear  
Wind Chill: 14°   Ceiling: Unl
Heat Index: 14°   Visibility: 10mi
Dew Point:   Wind: 10mph
Humidity: 42%   Direction: 310°NW
Pressure: 29.99"   Gusts: 17mph
Location:  32.1076°N, 85.5256°W
Report Text: KEUF 271658Z AUTO 31009G15KT 280V340 10SM CLR 14/01 A2999 RMK AO2 SLP156 T01390011
Loading
Personal Weather Stations






























Interactive Weather Map New forecast layout! Learn more

10-Day Weather Forecast

Advertisements
Track Severe Weather on mobile